createdAt,value
2017-06-19T00:01:16.620Z,86.70
2017-06-19T00:03:43.730Z,88.80
2017-06-19T00:06:10.118Z,88.70
2017-06-19T00:08:36.498Z,87.70
2017-06-19T00:11:02.882Z,86.70
2017-06-19T00:13:29.285Z,86.60
2017-06-19T00:15:56.419Z,87.60
2017-06-19T00:18:22.802Z,87.10
2017-06-19T00:20:55.509Z,88.30
2017-06-19T00:23:28.020Z,88.60
2017-06-19T00:25:54.389Z,88.50
2017-06-19T00:28:20.763Z,88.60
2017-06-19T00:30:47.175Z,89.00
2017-06-19T00:33:13.551Z,89.30
2017-06-19T00:35:39.916Z,88.10
2017-06-19T00:38:06.291Z,88.80
2017-06-19T00:40:33.419Z,88.20
2017-06-19T00:43:00.677Z,87.70
2017-06-19T00:45:27.109Z,88.20
2017-06-19T00:47:53.518Z,87.30
2017-06-19T00:50:19.914Z,87.50
2017-06-19T00:52:46.292Z,87.40
2017-06-19T00:55:12.773Z,87.90
2017-06-19T00:57:39.915Z,90.10
2017-06-19T01:00:07.045Z,90.10
2017-06-19T01:02:34.178Z,90.10
2017-06-19T01:05:00.567Z,90.00
2017-06-19T01:07:27.809Z,90.20
2017-06-19T01:09:54.624Z,89.10
2017-06-19T01:12:21.002Z,88.70
2017-06-19T01:14:47.375Z,87.50
2017-06-19T01:17:13.755Z,88.50
2017-06-19T01:19:40.155Z,88.70
2017-06-19T01:22:06.546Z,89.50
2017-06-19T01:24:32.980Z,90.20
2017-06-19T01:26:59.338Z,90.70
2017-06-19T01:29:25.727Z,90.80
2017-06-19T01:31:52.163Z,90.70
2017-06-19T01:34:18.540Z,90.30
2017-06-19T01:36:44.965Z,90.10
2017-06-19T01:39:11.358Z,90.60
2017-06-19T01:41:37.772Z,90.60
2017-06-19T01:44:04.199Z,90.50
2017-06-19T01:46:30.631Z,90.70
2017-06-19T01:48:57.013Z,90.50
2017-06-19T01:51:23.446Z,90.30
2017-06-19T01:53:49.903Z,89.70
2017-06-19T01:56:16.306Z,89.60
2017-06-19T01:58:42.699Z,90.60
2017-06-19T02:01:09.116Z,90.40
2017-06-19T02:03:36.260Z,89.40
2017-06-19T02:06:03.502Z,90.40
2017-06-19T02:08:30.637Z,90.00
2017-06-19T02:10:57.002Z,90.00
2017-06-19T02:13:24.104Z,90.20
2017-06-19T02:15:50.473Z,90.20
2017-06-19T02:18:16.845Z,90.30
2017-06-19T02:20:43.250Z,90.40
2017-06-19T02:23:10.347Z,90.30
2017-06-19T02:25:36.732Z,90.30
2017-06-19T02:28:03.112Z,90.60
2017-06-19T02:30:29.527Z,90.60
2017-06-19T02:32:55.914Z,90.20
2017-06-19T02:35:23.036Z,90.40
2017-06-19T02:37:49.444Z,90.60
2017-06-19T02:40:15.857Z,90.60
2017-06-19T02:42:42.243Z,90.50
2017-06-19T02:45:08.615Z,90.20
2017-06-19T02:47:35.004Z,90.50
2017-06-19T02:50:01.388Z,90.30
2017-06-19T02:52:27.764Z,90.30
2017-06-19T02:54:54.153Z,90.30
2017-06-19T02:57:20.563Z,90.60
2017-06-19T02:59:47.676Z,91.00
2017-06-19T03:02:14.059Z,91.00
2017-06-19T03:04:40.480Z,91.10
2017-06-19T03:07:06.872Z,91.00
2017-06-19T03:09:33.414Z,90.60
2017-06-19T03:12:01.014Z,89.80
2017-06-19T03:14:27.419Z,89.60
2017-06-19T03:16:53.802Z,90.70
2017-06-19T03:19:20.990Z,91.00
2017-06-19T03:21:47.388Z,91.10
2017-06-19T03:24:13.813Z,90.50
2017-06-19T03:26:40.230Z,90.80
2017-06-19T03:29:06.661Z,90.70
2017-06-19T03:31:33.048Z,90.40
2017-06-19T03:34:01.208Z,90.30
2017-06-19T03:36:27.605Z,90.30
2017-06-19T03:38:54.061Z,91.20
2017-06-19T03:41:20.465Z,91.30
2017-06-19T03:43:46.879Z,90.50
2017-06-19T03:46:13.299Z,90.20
2017-06-19T03:48:40.448Z,91.40
2017-06-19T03:51:07.574Z,90.90
2017-06-19T03:53:34.731Z,90.70
2017-06-19T03:56:01.135Z,90.70
2017-06-19T03:58:27.530Z,90.60
2017-06-19T04:00:54.631Z,90.90
2017-06-19T04:03:21.058Z,90.80
2017-06-19T04:05:47.462Z,90.40
2017-06-19T04:08:13.847Z,90.80
2017-06-19T04:10:40.968Z,90.60
2017-06-19T04:13:08.170Z,90.70
2017-06-19T04:15:34.561Z,90.70
2017-06-19T04:18:01.722Z,90.90
2017-06-19T04:20:28.887Z,90.90
2017-06-19T04:22:55.470Z,90.80
2017-06-19T04:25:21.894Z,90.30
2017-06-19T04:27:48.286Z,90.40
2017-06-19T04:30:15.459Z,90.50
2017-06-19T04:32:41.830Z,90.40
2017-06-19T04:35:08.234Z,90.40
2017-06-19T04:37:34.619Z,90.50
2017-06-19T04:40:01.025Z,90.50
2017-06-19T04:42:27.407Z,90.70
2017-06-19T04:44:53.835Z,90.70
2017-06-19T04:47:20.216Z,90.70
2017-06-19T04:49:46.621Z,91.00
2017-06-19T04:52:13.071Z,91.60
2017-06-19T04:54:39.467Z,91.40
2017-06-19T04:57:05.867Z,91.50
2017-06-19T04:59:32.393Z,91.10
2017-06-19T05:01:58.959Z,91.20
2017-06-19T05:04:26.211Z,91.70
2017-06-19T05:06:52.627Z,91.60
2017-06-19T05:09:19.014Z,91.70
2017-06-19T05:11:45.494Z,91.40
2017-06-19T05:14:12.627Z,91.30
2017-06-19T05:16:39.034Z,91.30
2017-06-19T05:19:05.485Z,91.30
2017-06-19T05:21:31.867Z,91.40
2017-06-19T05:23:58.257Z,91.60
2017-06-19T05:26:24.667Z,91.50
2017-06-19T05:28:51.039Z,91.30
2017-06-19T05:31:17.402Z,91.20
2017-06-19T05:33:43.791Z,91.60
2017-06-19T05:36:10.214Z,91.30
2017-06-19T05:38:36.619Z,91.10
2017-06-19T05:41:03.037Z,91.30
2017-06-19T05:43:29.939Z,91.00
2017-06-19T05:45:57.202Z,90.90
2017-06-19T05:48:23.614Z,90.50
2017-06-19T05:50:50.052Z,90.60
2017-06-19T05:53:16.451Z,90.40
2017-06-19T05:55:42.920Z,90.50
2017-06-19T05:58:09.351Z,90.70
2017-06-19T06:00:35.779Z,90.20
2017-06-19T06:03:02.197Z,90.40
2017-06-19T06:05:28.655Z,89.40
2017-06-19T06:07:55.102Z,89.80
2017-06-19T06:10:22.243Z,90.60
2017-06-19T06:12:48.663Z,90.30
2017-06-19T06:15:15.044Z,90.80
2017-06-19T06:17:41.454Z,90.50
2017-06-19T06:20:07.867Z,90.30
2017-06-19T06:22:35.023Z,89.70
2017-06-19T06:25:01.387Z,89.10
2017-06-19T06:27:27.778Z,88.90
2017-06-19T06:29:54.153Z,88.10
2017-06-19T06:32:20.518Z,87.60
2017-06-19T06:34:46.922Z,87.00
2017-06-19T06:37:13.401Z,87.40
2017-06-19T06:39:40.571Z,88.10
2017-06-19T06:42:07.689Z,87.50
2017-06-19T06:44:34.074Z,86.90
2017-06-19T06:47:00.472Z,86.30
2017-06-19T06:49:26.891Z,85.90
2017-06-19T06:51:53.323Z,87.30
2017-06-19T06:54:19.728Z,85.60
2017-06-19T06:56:46.154Z,85.90
2017-06-19T06:59:12.610Z,86.10
2017-06-19T07:01:39.005Z,86.00
2017-06-19T07:04:05.377Z,87.50
2017-06-19T07:06:31.786Z,86.80
2017-06-19T07:08:58.339Z,85.50
2017-06-19T07:11:24.984Z,84.70
2017-06-19T07:13:51.397Z,85.70
2017-06-19T07:16:17.787Z,83.90
2017-06-19T07:18:44.921Z,84.40
2017-06-19T07:21:11.314Z,84.40
2017-06-19T07:23:37.713Z,83.40
2017-06-19T07:26:04.098Z,83.60
2017-06-19T07:28:30.498Z,84.00
2017-06-19T07:30:56.878Z,82.60
2017-06-19T07:33:23.261Z,81.80
2017-06-19T07:35:49.638Z,81.20
2017-06-19T07:38:16.778Z,82.10
2017-06-19T07:40:43.247Z,81.60
2017-06-19T07:43:09.633Z,80.00
2017-06-19T07:45:36.027Z,80.20
2017-06-19T07:48:02.523Z,80.80
2017-06-19T07:50:28.928Z,81.20
2017-06-19T07:52:56.246Z,78.20
2017-06-19T07:55:22.731Z,79.00
2017-06-19T07:57:49.128Z,80.70
2017-06-19T08:00:15.523Z,80.60
2017-06-19T08:02:42.106Z,80.60
2017-06-19T08:05:08.486Z,81.90
2017-06-19T08:07:34.887Z,81.10
2017-06-19T08:10:01.280Z,80.20
2017-06-19T08:12:27.660Z,79.30
2017-06-19T08:14:54.023Z,78.50
2017-06-19T08:17:20.453Z,78.10
2017-06-19T08:19:46.819Z,78.00
2017-06-19T08:22:13.207Z,78.80
2017-06-19T08:24:39.583Z,78.00
2017-06-19T08:27:06.034Z,77.70
2017-06-19T08:29:32.428Z,76.10
2017-06-19T08:31:58.823Z,76.40
2017-06-19T08:34:25.960Z,77.20
2017-06-19T08:36:52.363Z,76.90
2017-06-19T08:39:18.739Z,77.20
2017-06-19T08:41:45.110Z,76.60
2017-06-19T08:44:11.535Z,75.40
2017-06-19T08:46:37.910Z,75.00
2017-06-19T08:49:04.338Z,76.50
2017-06-19T08:51:30.742Z,73.60
2017-06-19T08:53:57.131Z,76.00
2017-06-19T08:56:23.511Z,76.00
2017-06-19T08:58:49.916Z,75.90
2017-06-19T09:01:16.414Z,74.70
2017-06-19T09:03:42.854Z,72.90
2017-06-19T09:06:09.238Z,73.90
2017-06-19T09:08:35.640Z,73.90
2017-06-19T09:11:02.107Z,72.60
2017-06-19T09:13:28.489Z,73.70
2017-06-19T09:15:55.897Z,73.20
2017-06-19T09:18:22.326Z,70.20
2017-06-19T09:20:48.722Z,70.20
2017-06-19T09:23:15.855Z,71.00
2017-06-19T09:25:42.273Z,71.10
2017-06-19T09:28:08.670Z,72.00
2017-06-19T09:30:35.111Z,71.50
2017-06-19T09:33:01.507Z,73.00
2017-06-19T09:35:28.659Z,72.00
2017-06-19T09:37:55.074Z,71.90
2017-06-19T09:40:22.219Z,67.10
2017-06-19T09:42:48.604Z,67.00
2017-06-19T09:45:14.998Z,68.70
2017-06-19T09:47:41.402Z,69.00
2017-06-19T09:50:08.569Z,68.60
2017-06-19T09:52:34.984Z,68.50
2017-06-19T09:55:01.397Z,68.70
2017-06-19T09:57:27.840Z,70.60
2017-06-19T09:59:54.351Z,70.80
2017-06-19T10:02:20.726Z,72.60
2017-06-19T10:04:47.120Z,70.90
2017-06-19T10:07:13.528Z,69.90
2017-06-19T10:09:39.952Z,68.20
2017-06-19T10:12:06.311Z,68.60
2017-06-19T10:14:32.707Z,68.90
2017-06-19T10:16:59.117Z,70.00
2017-06-19T10:19:25.515Z,68.30
2017-06-19T10:21:51.901Z,69.10
2017-06-19T10:24:18.318Z,69.00
2017-06-19T10:26:44.703Z,65.90
2017-06-19T10:29:11.103Z,67.10
2017-06-19T10:31:37.523Z,67.60
2017-06-19T10:34:03.980Z,66.60
2017-06-19T10:36:30.381Z,67.20
2017-06-19T10:38:57.536Z,67.40
2017-06-19T10:41:24.697Z,68.20
2017-06-19T10:43:51.092Z,68.80
2017-06-19T10:46:17.529Z,71.60
2017-06-19T10:48:44.688Z,72.30
2017-06-19T10:51:11.080Z,72.20
2017-06-19T10:53:37.501Z,70.70
2017-06-19T10:56:03.915Z,67.60
2017-06-19T10:58:30.315Z,68.30
2017-06-19T11:00:57.469Z,65.20
2017-06-19T11:03:23.870Z,65.20
2017-06-19T11:05:50.300Z,64.60
2017-06-19T11:08:16.690Z,66.60
2017-06-19T11:10:43.066Z,66.90
2017-06-19T11:13:09.491Z,66.80
2017-06-19T11:15:35.878Z,66.40
2017-06-19T11:18:02.302Z,65.20
2017-06-19T11:20:29.536Z,63.70
2017-06-19T11:22:55.954Z,63.70
2017-06-19T11:25:22.351Z,62.90
2017-06-19T11:27:48.771Z,65.40
2017-06-19T11:30:15.149Z,62.90
2017-06-19T11:32:41.517Z,60.50
2017-06-19T11:35:08.656Z,62.40
2017-06-19T11:37:35.071Z,62.30
2017-06-19T11:40:01.460Z,63.60
2017-06-19T11:42:28.203Z,62.40
2017-06-19T11:44:54.627Z,60.80
2017-06-19T11:47:21.049Z,59.60
2017-06-19T11:49:48.399Z,59.30
2017-06-19T11:52:14.826Z,59.40
2017-06-19T11:54:42.030Z,61.30
2017-06-19T11:57:08.467Z,61.30
2017-06-19T11:59:34.861Z,60.30
2017-06-19T12:02:01.275Z,60.70
2017-06-19T12:04:27.668Z,60.40
2017-06-19T12:06:54.119Z,59.90
2017-06-19T12:09:21.264Z,60.90
2017-06-19T12:11:47.668Z,60.80
2017-06-19T12:14:14.094Z,61.40
2017-06-19T12:16:40.488Z,60.70
2017-06-19T12:19:06.898Z,59.60
2017-06-19T12:21:34.056Z,60.40
2017-06-19T12:24:00.468Z,60.40
2017-06-19T12:26:26.859Z,61.00
2017-06-19T12:28:53.286Z,59.20
2017-06-19T12:31:19.689Z,60.60
2017-06-19T12:33:46.090Z,59.00
2017-06-19T12:36:12.496Z,59.50
2017-06-19T12:38:38.910Z,57.90
2017-06-19T12:41:05.335Z,58.30
2017-06-19T12:43:31.758Z,58.70
2017-06-19T12:45:58.187Z,58.30
2017-06-19T12:48:24.593Z,61.30
2017-06-19T12:50:51.018Z,58.40
2017-06-19T12:53:18.167Z,57.90
2017-06-19T12:55:44.567Z,57.80
2017-06-19T12:58:10.970Z,57.80
2017-06-19T13:00:37.349Z,57.90
2017-06-19T13:03:03.748Z,57.20
2017-06-19T13:05:30.150Z,57.30
2017-06-19T13:07:56.609Z,57.30
2017-06-19T13:10:22.993Z,57.90
2017-06-19T13:12:50.178Z,57.50
2017-06-19T13:15:16.607Z,57.30
2017-06-19T13:17:43.054Z,57.90
2017-06-19T13:20:09.478Z,58.90
2017-06-19T13:22:35.879Z,58.90
2017-06-19T13:25:02.267Z,56.70
2017-06-19T13:27:28.663Z,56.40
2017-06-19T13:29:55.100Z,55.70
2017-06-19T13:32:22.248Z,55.20
2017-06-19T13:34:48.672Z,55.10
2017-06-19T13:37:15.047Z,56.90
2017-06-19T13:39:41.427Z,56.10
2017-06-19T13:42:08.674Z,57.50
2017-06-19T13:44:35.041Z,57.40
2017-06-19T13:47:01.451Z,57.50
2017-06-19T13:49:28.580Z,56.70
2017-06-19T13:51:54.962Z,56.60
2017-06-19T13:54:22.985Z,58.70
2017-06-19T13:56:49.366Z,58.70
2017-06-19T13:59:16.151Z,59.10
2017-06-19T14:01:42.590Z,57.10
2017-06-19T14:04:08.984Z,55.70
2017-06-19T14:06:35.357Z,56.00
2017-06-19T14:09:01.762Z,56.80
2017-06-19T14:11:28.161Z,57.30
2017-06-19T14:13:54.588Z,58.40
2017-06-19T14:16:20.999Z,56.70
2017-06-19T14:18:48.159Z,53.20
2017-06-19T14:21:14.557Z,53.10
2017-06-19T14:23:40.945Z,52.70
2017-06-19T14:26:07.372Z,52.80
2017-06-19T14:28:33.754Z,53.30
2017-06-19T14:31:00.156Z,55.40
2017-06-19T14:33:26.578Z,55.30
2017-06-19T14:35:53.127Z,54.60
2017-06-19T14:38:19.517Z,55.10
2017-06-19T14:40:45.927Z,54.70
2017-06-19T14:43:19.357Z,53.40
2017-06-19T14:45:45.793Z,52.40
2017-06-19T14:48:12.181Z,51.10
2017-06-19T14:50:39.328Z,50.90
2017-06-19T14:53:05.737Z,50.80
2017-06-19T14:55:32.111Z,53.50
2017-06-19T14:57:59.258Z,56.50
2017-06-19T15:00:26.426Z,54.80
2017-06-19T15:02:52.859Z,54.70
2017-06-19T15:05:19.274Z,53.20
2017-06-19T15:07:45.728Z,51.70
2017-06-19T15:10:12.165Z,48.80
2017-06-19T15:12:38.869Z,47.20
2017-06-19T15:15:05.303Z,46.80
2017-06-19T15:17:31.711Z,47.00
2017-06-19T15:19:58.105Z,45.60
2017-06-19T15:22:30.782Z,41.80
2017-06-19T15:24:57.164Z,42.90
2017-06-19T15:27:23.576Z,39.70
2017-06-19T15:29:49.994Z,40.80
2017-06-19T15:32:16.395Z,38.50
2017-06-19T15:34:43.562Z,35.60
2017-06-19T15:37:09.964Z,35.50
2017-06-19T15:39:37.096Z,40.00
2017-06-19T15:42:03.502Z,39.60
2017-06-19T15:44:29.957Z,39.60
2017-06-19T15:46:56.824Z,38.70
2017-06-19T15:49:23.937Z,38.80
2017-06-19T15:51:50.321Z,38.60
2017-06-19T15:54:16.717Z,38.00
2017-06-19T15:56:43.144Z,39.30
2017-06-19T15:59:09.547Z,38.00
2017-06-19T16:01:35.967Z,39.20
2017-06-19T16:04:02.374Z,36.50
2017-06-19T16:06:28.786Z,37.30
2017-06-19T16:08:55.208Z,37.90
2017-06-19T16:11:21.607Z,38.60
2017-06-19T16:13:48.027Z,36.80
2017-06-19T16:16:14.450Z,35.50
2017-06-19T16:18:40.866Z,35.00
2017-06-19T16:21:07.328Z,35.00
2017-06-19T16:23:33.725Z,35.00
2017-06-19T16:26:00.233Z,35.00
2017-06-19T16:28:26.608Z,36.40
2017-06-19T16:30:53.031Z,37.70
2017-06-19T16:33:20.184Z,38.50
2017-06-19T16:35:47.325Z,38.30
2017-06-19T16:38:14.478Z,37.70
2017-06-19T16:40:41.791Z,39.60
2017-06-19T16:43:08.199Z,39.50
2017-06-19T16:45:34.655Z,37.60
2017-06-19T16:48:01.082Z,36.20
2017-06-19T16:50:27.468Z,36.70
2017-06-19T16:52:54.615Z,33.90
2017-06-19T16:55:21.022Z,33.80
2017-06-19T16:57:48.182Z,34.00
2017-06-19T17:00:15.359Z,34.10
2017-06-19T17:02:41.783Z,34.10
2017-06-19T17:05:08.905Z,33.90
2017-06-19T17:07:35.297Z,34.00
2017-06-19T17:10:01.720Z,32.20
2017-06-19T17:12:28.143Z,33.70
2017-06-19T17:14:54.527Z,32.70
2017-06-19T17:17:20.944Z,33.60
2017-06-19T17:19:47.318Z,32.40
2017-06-19T17:22:14.469Z,34.60
2017-06-19T17:24:41.598Z,34.70
2017-06-19T17:27:08.766Z,33.90
2017-06-19T17:29:35.182Z,33.80
2017-06-19T17:32:01.577Z,34.50
2017-06-19T17:34:27.994Z,34.40
2017-06-19T17:36:54.427Z,35.10
2017-06-19T17:39:20.815Z,35.50
2017-06-19T17:41:54.069Z,34.80
2017-06-19T17:44:20.485Z,36.70
2017-06-19T17:46:46.915Z,36.10
2017-06-19T17:49:13.343Z,35.20
2017-06-19T17:51:39.728Z,37.70
2017-06-19T17:54:06.889Z,39.00
2017-06-19T17:56:34.046Z,40.90
2017-06-19T17:59:00.434Z,40.80
2017-06-19T18:01:26.898Z,41.50
2017-06-19T18:03:53.323Z,41.70
2017-06-19T18:06:19.748Z,39.10
2017-06-19T18:08:46.172Z,39.40
2017-06-19T18:11:12.558Z,39.60
2017-06-19T18:13:38.936Z,39.90
2017-06-19T18:16:05.349Z,39.50
2017-06-19T18:18:31.743Z,38.20
2017-06-19T18:20:58.165Z,41.20
2017-06-19T18:23:24.681Z,42.70
2017-06-19T18:25:51.112Z,41.40
2017-06-19T18:28:17.531Z,40.50
2017-06-19T18:30:43.911Z,42.40
2017-06-19T18:33:11.086Z,44.40
2017-06-19T18:35:37.496Z,44.40
2017-06-19T18:38:04.041Z,42.90
2017-06-19T18:40:30.539Z,46.20
2017-06-19T18:42:56.964Z,45.50
2017-06-19T18:45:24.120Z,46.80
2017-06-19T18:47:50.549Z,46.10
2017-06-19T18:50:17.149Z,48.20
2017-06-19T18:52:43.622Z,48.40
2017-06-19T18:55:10.797Z,50.50
2017-06-19T18:57:37.940Z,51.20
2017-06-19T19:00:05.127Z,52.00
2017-06-19T19:02:32.037Z,51.80
2017-06-19T19:04:58.591Z,51.70
2017-06-19T19:07:25.069Z,51.90
2017-06-19T19:09:51.625Z,52.70
2017-06-19T19:12:18.815Z,55.10
2017-06-19T19:14:45.301Z,55.10
2017-06-19T19:17:11.738Z,55.80
2017-06-19T19:19:38.247Z,55.70
2017-06-19T19:22:04.678Z,57.00
2017-06-19T19:24:31.316Z,57.30
2017-06-19T19:26:57.859Z,57.50
2017-06-19T19:29:25.231Z,59.20
2017-06-19T19:31:51.827Z,58.60
2017-06-19T19:34:18.263Z,59.00
2017-06-19T19:36:44.902Z,59.30
2017-06-19T19:39:11.272Z,60.80
2017-06-19T19:41:37.889Z,61.70
2017-06-19T19:44:04.322Z,62.60
2017-06-19T19:46:30.758Z,62.90
2017-06-19T19:48:57.337Z,62.10
2017-06-19T19:51:23.847Z,62.80
2017-06-19T19:53:50.249Z,63.60
2017-06-19T19:56:16.627Z,64.00
2017-06-19T19:58:43.775Z,65.90
2017-06-19T20:01:10.166Z,65.80
2017-06-19T20:03:36.574Z,64.10
2017-06-19T20:06:02.951Z,66.00
2017-06-19T20:08:29.366Z,66.10
2017-06-19T20:10:55.736Z,67.50
2017-06-19T20:13:23.626Z,69.20
2017-06-19T20:15:49.996Z,68.30
2017-06-19T20:18:17.366Z,69.70
2017-06-19T20:20:43.759Z,69.60
2017-06-19T20:23:10.196Z,70.00
2017-06-19T20:25:36.626Z,70.50
2017-06-19T20:28:02.986Z,70.90
2017-06-19T20:30:29.698Z,69.60
2017-06-19T20:32:56.186Z,69.80
2017-06-19T20:35:22.566Z,69.10
2017-06-19T20:37:48.934Z,69.00
2017-06-19T20:40:15.314Z,71.20
2017-06-19T20:42:41.710Z,71.10
2017-06-19T20:45:08.829Z,71.00
2017-06-19T20:47:35.210Z,70.90
2017-06-19T20:50:02.367Z,72.50
2017-06-19T20:52:28.771Z,72.40
2017-06-19T20:54:55.890Z,71.50
2017-06-19T20:57:22.360Z,71.40
2017-06-19T20:59:48.722Z,71.50
2017-06-19T21:02:15.090Z,71.20
2017-06-19T21:04:41.479Z,71.60
2017-06-19T21:07:08.177Z,70.60
2017-06-19T21:09:34.619Z,71.50
2017-06-19T21:12:01.750Z,73.40
2017-06-19T21:14:28.925Z,73.40
2017-06-19T21:16:56.049Z,73.00
2017-06-19T21:19:22.431Z,72.80
2017-06-19T21:21:48.818Z,72.10
2017-06-19T21:24:15.193Z,71.70
2017-06-19T21:26:41.580Z,72.10
2017-06-19T21:29:07.952Z,72.30
2017-06-19T21:31:34.322Z,72.60
2017-06-19T21:34:00.690Z,73.50
2017-06-19T21:36:27.086Z,73.80
2017-06-19T21:38:53.455Z,74.30
2017-06-19T21:41:20.594Z,74.00
2017-06-19T21:43:46.982Z,73.80
2017-06-19T21:46:13.339Z,73.40
2017-06-19T21:48:39.713Z,73.70
2017-06-19T21:51:06.816Z,74.50
2017-06-19T21:53:33.235Z,74.50
2017-06-19T21:55:59.667Z,75.10
2017-06-19T21:58:26.031Z,74.30
2017-06-19T22:00:53.162Z,75.50
2017-06-19T22:03:20.358Z,75.50
2017-06-19T22:05:47.481Z,76.30
2017-06-19T22:08:14.614Z,76.10
2017-06-19T22:10:40.990Z,76.70
2017-06-19T22:13:08.088Z,76.90
2017-06-19T22:15:34.494Z,76.80
2017-06-19T22:18:00.862Z,77.20
2017-06-19T22:20:27.265Z,77.50
2017-06-19T22:22:57.745Z,77.30
2017-06-19T22:25:24.131Z,77.70
2017-06-19T22:27:50.482Z,76.10
2017-06-19T22:30:16.879Z,76.10
2017-06-19T22:32:43.257Z,76.00
2017-06-19T22:35:09.626Z,76.10
2017-06-19T22:37:36.006Z,76.20
2017-06-19T22:40:02.402Z,76.60
2017-06-19T22:42:28.785Z,76.70
2017-06-19T22:44:55.139Z,76.80
2017-06-19T22:47:22.270Z,75.20
2017-06-19T22:49:48.629Z,75.00
2017-06-19T22:52:15.066Z,75.80
2017-06-19T22:54:41.434Z,76.90
2017-06-19T22:57:07.791Z,76.70
2017-06-19T22:59:34.170Z,77.10
2017-06-19T23:02:00.542Z,78.30
2017-06-19T23:04:26.958Z,78.10
2017-06-19T23:06:53.310Z,78.60
2017-06-19T23:09:19.712Z,81.30
2017-06-19T23:11:46.133Z,81.00
2017-06-19T23:14:12.521Z,81.10
2017-06-19T23:16:38.887Z,81.50
2017-06-19T23:19:05.252Z,80.20
2017-06-19T23:21:31.669Z,81.70
2017-06-19T23:23:58.062Z,80.00
2017-06-19T23:26:24.448Z,78.70
2017-06-19T23:28:50.856Z,79.30
2017-06-19T23:31:17.267Z,79.50
2017-06-19T23:33:43.642Z,80.90
2017-06-19T23:36:10.012Z,79.70
2017-06-19T23:38:37.140Z,79.50
2017-06-19T23:41:03.512Z,79.30
2017-06-19T23:43:29.903Z,78.30
2017-06-19T23:45:56.272Z,78.60
2017-06-19T23:48:22.667Z,79.30
2017-06-19T23:50:49.038Z,79.10
2017-06-19T23:53:15.436Z,79.70
2017-06-19T23:55:41.792Z,80.10
2017-06-19T23:58:08.191Z,80.30
